sensor_id;sensor_type;location;lat;lon;timestamp;pressure;altitude;pressure_sealevel;temperature;humidity
20013;BME280;10167;42.852;23.042;2023-02-19T00:00:03;95203.31;;;5.55;100.00
20013;BME280;10167;42.852;23.042;2023-02-19T00:02:41;95200.47;;;5.50;100.00
20013;BME280;10167;42.852;23.042;2023-02-19T00:05:13;95199.25;;;5.46;100.00
20013;BME280;10167;42.852;23.042;2023-02-19T00:07:42;95202.25;;;5.43;100.00
20013;BME280;10167;42.852;23.042;2023-02-19T00:10:11;95205.50;;;5.38;100.00
20013;BME280;10167;42.852;23.042;2023-02-19T00:12:40;95202.44;;;5.35;100.00
20013;BME280;10167;42.852;23.042;2023-02-19T00:15:09;95195.75;;;5.32;100.00
20013;BME280;10167;42.852;23.042;2023-02-19T00:17:38;95192.94;;;5.34;100.00
20013;BME280;10167;42.852;23.042;2023-02-19T00:20:09;95192.94;;;5.27;100.00
20013;BME280;10167;42.852;23.042;2023-02-19T00:22:38;95185.81;;;5.21;100.00
20013;BME280;10167;42.852;23.042;2023-02-19T00:25:07;95178.94;;;5.20;100.00
20013;BME280;10167;42.852;23.042;2023-02-19T00:27:36;95181.19;;;5.23;100.00
20013;BME280;10167;42.852;23.042;2023-02-19T00:30:06;95169.50;;;5.26;100.00
20013;BME280;10167;42.852;23.042;2023-02-19T00:32:35;95163.84;;;5.29;100.00
20013;BME280;10167;42.852;23.042;2023-02-19T00:35:04;95161.22;;;5.29;100.00
20013;BME280;10167;42.852;23.042;2023-02-19T00:37:35;95161.03;;;5.30;100.00
20013;BME280;10167;42.852;23.042;2023-02-19T00:40:05;95158.22;;;5.38;100.00
20013;BME280;10167;42.852;23.042;2023-02-19T00:42:34;95159.22;;;5.37;100.00
20013;BME280;10167;42.852;23.042;2023-02-19T00:45:03;95165.28;;;5.38;100.00
20013;BME280;10167;42.852;23.042;2023-02-19T00:47:33;95169.94;;;5.36;100.00
20013;BME280;10167;42.852;23.042;2023-02-19T00:50:02;95161.44;;;5.27;100.00
20013;BME280;10167;42.852;23.042;2023-02-19T00:52:31;95173.69;;;5.20;100.00
20013;BME280;10167;42.852;23.042;2023-02-19T00:55:01;95172.81;;;5.00;100.00
20013;BME280;10167;42.852;23.042;2023-02-19T00:57:31;95178.25;;;4.92;100.00
20013;BME280;10167;42.852;23.042;2023-02-19T01:00:00;95173.81;;;4.99;100.00
20013;BME280;10167;42.852;23.042;2023-02-19T01:02:32;95168.00;;;5.03;100.00
20013;BME280;10167;42.852;23.042;2023-02-19T01:05:01;95165.00;;;5.06;100.00
20013;BME280;10167;42.852;23.042;2023-02-19T01:07:30;95166.00;;;5.05;100.00
20013;BME280;10167;42.852;23.042;2023-02-19T01:10:01;95178.91;;;5.07;100.00
20013;BME280;10167;42.852;23.042;2023-02-19T01:12:30;95169.44;;;5.06;100.00
20013;BME280;10167;42.852;23.042;2023-02-19T01:14:59;95181.31;;;5.08;100.00
20013;BME280;10167;42.852;23.042;2023-02-19T01:17:30;95179.94;;;5.13;100.00
20013;BME280;10167;42.852;23.042;2023-02-19T01:19:59;95183.13;;;5.08;100.00
20013;BME280;10167;42.852;23.042;2023-02-19T01:22:29;95187.13;;;4.97;100.00
20013;BME280;10167;42.852;23.042;2023-02-19T01:24:58;95196.19;;;4.88;100.00
20013;BME280;10167;42.852;23.042;2023-02-19T01:27:30;95194.91;;;4.78;100.00
20013;BME280;10167;42.852;23.042;2023-02-19T01:29:59;95199.13;;;4.72;100.00
20013;BME280;10167;42.852;23.042;2023-02-19T01:32:29;95200.06;;;4.64;100.00
20013;BME280;10167;42.852;23.042;2023-02-19T01:34:58;95200.22;;;4.56;100.00
20013;BME280;10167;42.852;23.042;2023-02-19T01:37:29;95194.97;;;4.56;100.00
20013;BME280;10167;42.852;23.042;2023-02-19T01:39:58;95189.53;;;4.58;100.00
20013;BME280;10167;42.852;23.042;2023-02-19T01:42:31;95196.03;;;4.62;100.00
20013;BME280;10167;42.852;23.042;2023-02-19T01:45:25;95186.94;;;4.64;100.00
20013;BME280;10167;42.852;23.042;2023-02-19T01:47:59;95188.19;;;4.68;100.00
20013;BME280;10167;42.852;23.042;2023-02-19T01:50:33;95188.66;;;4.79;100.00
20013;BME280;10167;42.852;23.042;2023-02-19T01:53:06;95192.72;;;4.88;100.00
20013;BME280;10167;42.852;23.042;2023-02-19T01:55:38;95192.59;;;4.96;100.00
20013;BME280;10167;42.852;23.042;2023-02-19T01:58:09;95204.13;;;5.08;100.00
20013;BME280;10167;42.852;23.042;2023-02-19T02:00:39;95185.81;;;5.15;100.00
20013;BME280;10167;42.852;23.042;2023-02-19T02:03:08;95183.63;;;5.18;100.00
20013;BME280;10167;42.852;23.042;2023-02-19T02:05:49;95189.44;;;5.20;100.00
20013;BME280;10167;42.852;23.042;2023-02-19T02:08:21;95180.00;;;5.26;100.00
20013;BME280;10167;42.852;23.042;2023-02-19T02:11:08;95176.75;;;5.24;100.00
20013;BME280;10167;42.852;23.042;2023-02-19T02:13:39;95178.69;;;5.08;100.00
20013;BME280;10167;42.852;23.042;2023-02-19T02:16:20;95175.94;;;5.23;100.00
20013;BME280;10167;42.852;23.042;2023-02-19T02:19:05;95177.13;;;5.21;100.00
20013;BME280;10167;42.852;23.042;2023-02-19T02:21:58;95180.56;;;5.21;100.00
20013;BME280;10167;42.852;23.042;2023-02-19T02:24:56;95183.63;;;5.25;100.00
20013;BME280;10167;42.852;23.042;2023-02-19T02:27:40;95179.19;;;5.25;100.00
20013;BME280;10167;42.852;23.042;2023-02-19T02:30:21;95187.06;;;5.25;100.00
20013;BME280;10167;42.852;23.042;2023-02-19T02:32:56;95186.06;;;5.26;100.00
20013;BME280;10167;42.852;23.042;2023-02-19T02:35:29;95183.81;;;5.23;100.00
20013;BME280;10167;42.852;23.042;2023-02-19T02:38:08;95181.81;;;5.25;100.00
20013;BME280;10167;42.852;23.042;2023-02-19T02:40:43;95181.78;;;5.19;100.00
20013;BME280;10167;42.852;23.042;2023-02-19T02:43:14;95184.63;;;5.17;100.00
20013;BME280;10167;42.852;23.042;2023-02-19T02:45:45;95185.22;;;5.19;100.00
20013;BME280;10167;42.852;23.042;2023-02-19T02:48:38;95180.38;;;5.23;100.00
20013;BME280;10167;42.852;23.042;2023-02-19T02:51:14;95186.81;;;5.20;100.00
20013;BME280;10167;42.852;23.042;2023-02-19T02:53:56;95187.63;;;5.21;100.00
20013;BME280;10167;42.852;23.042;2023-02-19T02:56:45;95184.38;;;5.12;100.00
20013;BME280;10167;42.852;23.042;2023-02-19T02:59:18;95188.38;;;5.08;100.00
20013;BME280;10167;42.852;23.042;2023-02-19T03:01:51;95185.19;;;5.13;100.00
20013;BME280;10167;42.852;23.042;2023-02-19T03:04:44;95194.81;;;4.99;100.00
20013;BME280;10167;42.852;23.042;2023-02-19T03:07:37;95190.72;;;4.90;100.00
20013;BME280;10167;42.852;23.042;2023-02-19T03:10:10;95198.53;;;4.77;100.00
20013;BME280;10167;42.852;23.042;2023-02-19T03:12:43;95194.41;;;4.61;100.00
20013;BME280;10167;42.852;23.042;2023-02-19T03:15:33;95197.16;;;4.53;100.00
20013;BME280;10167;42.852;23.042;2023-02-19T03:18:26;95196.06;;;4.41;100.00
20013;BME280;10167;42.852;23.042;2023-02-19T03:21:16;95210.16;;;4.33;100.00
20013;BME280;10167;42.852;23.042;2023-02-19T03:23:47;95209.84;;;4.21;100.00
20013;BME280;10167;42.852;23.042;2023-02-19T03:26:35;95202.34;;;4.18;100.00
20013;BME280;10167;42.852;23.042;2023-02-19T03:29:06;95213.25;;;4.15;100.00
20013;BME280;10167;42.852;23.042;2023-02-19T03:32:04;95212.97;;;4.10;100.00
20013;BME280;10167;42.852;23.042;2023-02-19T03:34:39;95214.78;;;4.10;100.00
20013;BME280;10167;42.852;23.042;2023-02-19T03:37:13;95217.38;;;4.03;100.00
20013;BME280;10167;42.852;23.042;2023-02-19T03:39:44;95218.72;;;3.99;100.00
20013;BME280;10167;42.852;23.042;2023-02-19T03:42:23;95221.97;;;4.01;100.00
20013;BME280;10167;42.852;23.042;2023-02-19T03:45:04;95224.34;;;3.96;100.00
20013;BME280;10167;42.852;23.042;2023-02-19T03:47:43;95222.31;;;3.91;100.00
20013;BME280;10167;42.852;23.042;2023-02-19T03:50:22;95224.72;;;3.93;100.00
20013;BME280;10167;42.852;23.042;2023-02-19T03:52:59;95220.59;;;3.84;100.00
20013;BME280;10167;42.852;23.042;2023-02-19T03:55:38;95229.41;;;3.76;100.00
20013;BME280;10167;42.852;23.042;2023-02-19T03:58:16;95230.56;;;3.74;100.00
20013;BME280;10167;42.852;23.042;2023-02-19T04:00:53;95229.41;;;3.76;100.00
20013;BME280;10167;42.852;23.042;2023-02-19T04:03:30;95228.94;;;3.73;100.00
20013;BME280;10167;42.852;23.042;2023-02-19T04:06:06;95230.50;;;3.67;100.00
20013;BME280;10167;42.852;23.042;2023-02-19T04:08:38;95230.50;;;3.67;100.00
20013;BME280;10167;42.852;23.042;2023-02-19T04:11:10;95233.13;;;3.67;100.00
20013;BME280;10167;42.852;23.042;2023-02-19T04:13:43;95229.16;;;3.71;100.00
20013;BME280;10167;42.852;23.042;2023-02-19T04:16:18;95239.25;;;3.74;100.00
20013;BME280;10167;42.852;23.042;2023-02-19T04:18:52;95237.88;;;3.78;100.00
20013;BME280;10167;42.852;23.042;2023-02-19T04:21:25;95238.50;;;3.80;100.00
20013;BME280;10167;42.852;23.042;2023-02-19T04:23:58;95238.94;;;3.84;100.00
20013;BME280;10167;42.852;23.042;2023-02-19T04:26:31;95237.56;;;3.88;100.00
20013;BME280;10167;42.852;23.042;2023-02-19T04:29:01;95229.56;;;3.96;100.00
20013;BME280;10167;42.852;23.042;2023-02-19T04:31:31;95238.16;;;4.05;100.00
20013;BME280;10167;42.852;23.042;2023-02-19T04:34:03;95241.13;;;4.01;100.00
20013;BME280;10167;42.852;23.042;2023-02-19T04:36:33;95244.31;;;3.97;100.00
20013;BME280;10167;42.852;23.042;2023-02-19T04:39:03;95240.94;;;4.03;100.00
20013;BME280;10167;42.852;23.042;2023-02-19T04:41:32;95240.78;;;4.05;100.00
20013;BME280;10167;42.852;23.042;2023-02-19T04:44:01;95245.06;;;4.12;100.00
20013;BME280;10167;42.852;23.042;2023-02-19T04:46:30;95239.63;;;4.14;100.00
20013;BME280;10167;42.852;23.042;2023-02-19T04:48:59;95249.97;;;4.22;100.00
20013;BME280;10167;42.852;23.042;2023-02-19T04:51:28;95250.22;;;4.27;100.00
20013;BME280;10167;42.852;23.042;2023-02-19T04:53:59;95253.84;;;4.26;100.00
20013;BME280;10167;42.852;23.042;2023-02-19T04:56:28;95252.09;;;4.33;100.00
20013;BME280;10167;42.852;23.042;2023-02-19T04:58:57;95251.13;;;4.41;100.00
20013;BME280;10167;42.852;23.042;2023-02-19T05:01:26;95253.22;;;4.52;100.00
20013;BME280;10167;42.852;23.042;2023-02-19T05:03:55;95256.56;;;4.60;100.00
20013;BME280;10167;42.852;23.042;2023-02-19T05:06:24;95254.34;;;4.64;100.00
20013;BME280;10167;42.852;23.042;2023-02-19T05:08:53;95246.91;;;4.67;100.00
20013;BME280;10167;42.852;23.042;2023-02-19T05:11:24;95248.97;;;4.72;100.00
20013;BME280;10167;42.852;23.042;2023-02-19T05:13:54;95250.81;;;4.78;100.00
20013;BME280;10167;42.852;23.042;2023-02-19T05:16:24;95246.63;;;4.84;100.00
20013;BME280;10167;42.852;23.042;2023-02-19T05:18:53;95252.16;;;4.95;100.00
20013;BME280;10167;42.852;23.042;2023-02-19T05:21:22;95249.72;;;5.00;100.00
20013;BME280;10167;42.852;23.042;2023-02-19T05:23:51;95254.22;;;5.06;100.00
20013;BME280;10167;42.852;23.042;2023-02-19T05:26:22;95254.09;;;5.21;100.00
20013;BME280;10167;42.852;23.042;2023-02-19T05:28:52;95246.66;;;5.31;100.00
20013;BME280;10167;42.852;23.042;2023-02-19T05:31:22;95250.75;;;5.40;100.00
20013;BME280;10167;42.852;23.042;2023-02-19T05:33:51;95261.34;;;5.60;100.00
20013;BME280;10167;42.852;23.042;2023-02-19T05:36:22;95254.50;;;5.72;100.00
20013;BME280;10167;42.852;23.042;2023-02-19T05:38:52;95262.19;;;5.87;100.00
20013;BME280;10167;42.852;23.042;2023-02-19T05:41:23;95263.13;;;6.07;100.00
20013;BME280;10167;42.852;23.042;2023-02-19T05:43:55;95260.09;;;6.24;100.00
20013;BME280;10167;42.852;23.042;2023-02-19T05:46:25;95264.34;;;6.38;100.00
20013;BME280;10167;42.852;23.042;2023-02-19T05:48:56;95271.84;;;6.41;100.00
20013;BME280;10167;42.852;23.042;2023-02-19T05:51:26;95267.81;;;6.51;100.00
20013;BME280;10167;42.852;23.042;2023-02-19T05:53:56;95270.81;;;6.68;100.00
20013;BME280;10167;42.852;23.042;2023-02-19T05:56:31;95280.16;;;6.84;100.00
20013;BME280;10167;42.852;23.042;2023-02-19T05:59:04;95282.94;;;7.02;100.00
20013;BME280;10167;42.852;23.042;2023-02-19T06:01:34;95276.84;;;7.15;100.00
20013;BME280;10167;42.852;23.042;2023-02-19T06:04:06;95286.31;;;7.36;100.00
20013;BME280;10167;42.852;23.042;2023-02-19T06:06:35;95292.97;;;7.51;100.00
20013;BME280;10167;42.852;23.042;2023-02-19T06:09:05;95292.56;;;7.54;100.00
20013;BME280;10167;42.852;23.042;2023-02-19T06:11:35;95302.47;;;7.59;100.00
20013;BME280;10167;42.852;23.042;2023-02-19T06:14:06;95291.97;;;7.52;100.00
20013;BME280;10167;42.852;23.042;2023-02-19T06:16:35;95303.53;;;7.45;100.00
20013;BME280;10167;42.852;23.042;2023-02-19T06:19:04;95307.84;;;7.33;100.00
20013;BME280;10167;42.852;23.042;2023-02-19T06:21:33;95307.25;;;7.11;100.00
20013;BME280;10167;42.852;23.042;2023-02-19T06:24:06;95302.81;;;7.05;100.00
20013;BME280;10167;42.852;23.042;2023-02-19T06:26:37;95313.16;;;7.00;100.00
20013;BME280;10167;42.852;23.042;2023-02-19T06:29:07;95313.16;;;7.00;100.00
20013;BME280;10167;42.852;23.042;2023-02-19T06:31:36;95316.56;;;7.07;100.00
20013;BME280;10167;42.852;23.042;2023-02-19T06:34:05;95310.69;;;7.11;100.00
20013;BME280;10167;42.852;23.042;2023-02-19T06:36:35;95316.75;;;7.25;100.00
20013;BME280;10167;42.852;23.042;2023-02-19T06:39:04;95313.88;;;7.40;100.00
20013;BME280;10167;42.852;23.042;2023-02-19T06:41:34;95322.13;;;7.56;100.00
20013;BME280;10167;42.852;23.042;2023-02-19T06:44:03;95325.53;;;7.77;100.00
20013;BME280;10167;42.852;23.042;2023-02-19T06:46:33;95326.81;;;8.06;100.00
20013;BME280;10167;42.852;23.042;2023-02-19T06:49:03;95322.84;;;8.28;100.00
20013;BME280;10167;42.852;23.042;2023-02-19T06:51:33;95320.09;;;8.54;100.00
20013;BME280;10167;42.852;23.042;2023-02-19T06:54:02;95319.53;;;8.77;100.00
20013;BME280;10167;42.852;23.042;2023-02-19T06:56:32;95327.81;;;9.05;100.00
20013;BME280;10167;42.852;23.042;2023-02-19T06:59:05;95334.53;;;9.26;98.15
20013;BME280;10167;42.852;23.042;2023-02-19T07:01:37;95336.06;;;9.59;94.73
20013;BME280;10167;42.852;23.042;2023-02-19T07:04:06;95330.47;;;9.85;90.64
20013;BME280;10167;42.852;23.042;2023-02-19T07:06:36;95338.16;;;10.05;88.80
20013;BME280;10167;42.852;23.042;2023-02-19T07:09:06;95330.38;;;10.28;86.59
20013;BME280;10167;42.852;23.042;2023-02-19T07:11:37;95332.56;;;10.61;83.91
20013;BME280;10167;42.852;23.042;2023-02-19T07:14:09;95336.34;;;10.83;79.90
20013;BME280;10167;42.852;23.042;2023-02-19T07:16:43;95342.97;;;11.27;75.89
20013;BME280;10167;42.852;23.042;2023-02-19T07:19:14;95341.44;;;11.55;73.05
20013;BME280;10167;42.852;23.042;2023-02-19T07:21:43;95341.69;;;11.88;71.28
20013;BME280;10167;42.852;23.042;2023-02-19T07:24:12;95343.00;;;12.14;69.68
20013;BME280;10167;42.852;23.042;2023-02-19T07:26:41;95340.13;;;12.44;67.29
20013;BME280;10167;42.852;23.042;2023-02-19T07:29:10;95335.53;;;12.68;65.86
20013;BME280;10167;42.852;23.042;2023-02-19T07:31:39;95339.44;;;12.94;64.21
20013;BME280;10167;42.852;23.042;2023-02-19T07:34:10;95327.13;;;13.04;62.65
20013;BME280;10167;42.852;23.042;2023-02-19T07:36:39;95327.69;;;13.06;63.29
20013;BME280;10167;42.852;23.042;2023-02-19T07:39:10;95333.44;;;13.15;63.26
20013;BME280;10167;42.852;23.042;2023-02-19T07:41:41;95339.47;;;13.27;62.69
20013;BME280;10167;42.852;23.042;2023-02-19T07:44:17;95335.38;;;13.53;62.18
20013;BME280;10167;42.852;23.042;2023-02-19T07:46:46;95340.50;;;13.76;60.57
20013;BME280;10167;42.852;23.042;2023-02-19T07:49:16;95337.28;;;13.96;60.34
20013;BME280;10167;42.852;23.042;2023-02-19T07:51:45;95341.56;;;14.19;59.08
20013;BME280;10167;42.852;23.042;2023-02-19T07:54:15;95337.06;;;14.41;57.64
20013;BME280;10167;42.852;23.042;2023-02-19T07:56:44;95343.16;;;14.64;57.33
20013;BME280;10167;42.852;23.042;2023-02-19T07:59:13;95332.25;;;14.92;56.40
20013;BME280;10167;42.852;23.042;2023-02-19T08:01:42;95330.53;;;15.08;54.97
20013;BME280;10167;42.852;23.042;2023-02-19T08:04:30;95329.81;;;15.17;55.40
20013;BME280;10167;42.852;23.042;2023-02-19T08:06:59;95323.31;;;15.40;54.91
20013;BME280;10167;42.852;23.042;2023-02-19T08:09:28;95329.16;;;15.74;53.78
20013;BME280;10167;42.852;23.042;2023-02-19T08:11:59;95320.72;;;15.92;53.11
20013;BME280;10167;42.852;23.042;2023-02-19T08:14:45;95317.09;;;16.14;52.76
20013;BME280;10167;42.852;23.042;2023-02-19T08:17:15;95311.50;;;16.20;52.00
20013;BME280;10167;42.852;23.042;2023-02-19T08:19:46;95317.16;;;16.29;51.95
20013;BME280;10167;42.852;23.042;2023-02-19T08:22:15;95315.09;;;16.46;51.69
20013;BME280;10167;42.852;23.042;2023-02-19T08:24:44;95314.28;;;16.61;51.51
20013;BME280;10167;42.852;23.042;2023-02-19T08:27:13;95317.06;;;16.81;50.38
20013;BME280;10167;42.852;23.042;2023-02-19T08:29:42;95318.94;;;16.96;50.34
20013;BME280;10167;42.852;23.042;2023-02-19T08:32:12;95312.53;;;17.32;49.28
20013;BME280;10167;42.852;23.042;2023-02-19T08:34:41;95310.94;;;17.31;49.51
20013;BME280;10167;42.852;23.042;2023-02-19T08:37:12;95316.81;;;17.59;48.97
20013;BME280;10167;42.852;23.042;2023-02-19T08:39:41;95303.16;;;17.65;47.36
20013;BME280;10167;42.852;23.042;2023-02-19T08:42:10;95305.53;;;17.62;45.87
20013;BME280;10167;42.852;23.042;2023-02-19T08:44:39;95302.78;;;18.07;45.15
20013;BME280;10167;42.852;23.042;2023-02-19T08:47:09;95304.03;;;18.30;45.65
20013;BME280;10167;42.852;23.042;2023-02-19T08:49:38;95292.44;;;17.81;45.61
20013;BME280;10167;42.852;23.042;2023-02-19T08:52:07;95285.94;;;17.97;45.67
20013;BME280;10167;42.852;23.042;2023-02-19T08:54:38;95283.78;;;17.99;45.15
20013;BME280;10167;42.852;23.042;2023-02-19T08:57:07;95274.09;;;18.13;45.10
20013;BME280;10167;42.852;23.042;2023-02-19T08:59:36;95272.44;;;18.27;44.58
20013;BME280;10167;42.852;23.042;2023-02-19T09:02:05;95271.03;;;18.35;44.40
20013;BME280;10167;42.852;23.042;2023-02-19T09:04:34;95265.63;;;18.40;44.10
20013;BME280;10167;42.852;23.042;2023-02-19T09:07:05;95270.81;;;18.26;44.15
20013;BME280;10167;42.852;23.042;2023-02-19T09:09:38;95269.06;;;18.61;43.46
20013;BME280;10167;42.852;23.042;2023-02-19T09:12:09;95268.22;;;18.65;43.84
20013;BME280;10167;42.852;23.042;2023-02-19T09:14:39;95265.00;;;19.02;43.44
20013;BME280;10167;42.852;23.042;2023-02-19T09:17:08;95269.28;;;18.69;43.69
20013;BME280;10167;42.852;23.042;2023-02-19T09:19:38;95265.69;;;19.18;43.76
20013;BME280;10167;42.852;23.042;2023-02-19T09:22:07;95258.28;;;19.05;43.12
20013;BME280;10167;42.852;23.042;2023-02-19T09:24:38;95260.91;;;18.76;43.42
20013;BME280;10167;42.852;23.042;2023-02-19T09:27:07;95262.78;;;19.14;43.24
20013;BME280;10167;42.852;23.042;2023-02-19T09:29:37;95267.59;;;19.12;42.48
20013;BME280;10167;42.852;23.042;2023-02-19T09:32:06;95267.88;;;18.77;43.69
20013;BME280;10167;42.852;23.042;2023-02-19T09:34:36;95254.00;;;19.04;43.28
20013;BME280;10167;42.852;23.042;2023-02-19T09:37:06;95246.75;;;19.04;44.52
20013;BME280;10167;42.852;23.042;2023-02-19T09:39:35;95251.91;;;19.30;44.27
20013;BME280;10167;42.852;23.042;2023-02-19T09:42:11;95244.88;;;19.05;44.28
20013;BME280;10167;42.852;23.042;2023-02-19T09:44:45;95240.34;;;18.56;44.74
20013;BME280;10167;42.852;23.042;2023-02-19T09:47:17;95233.97;;;19.20;44.28
20013;BME280;10167;42.852;23.042;2023-02-19T09:49:48;95228.53;;;18.96;44.56
20013;BME280;10167;42.852;23.042;2023-02-19T09:52:24;95231.13;;;18.77;45.11
20013;BME280;10167;42.852;23.042;2023-02-19T09:54:54;95220.03;;;18.89;44.53
20013;BME280;10167;42.852;23.042;2023-02-19T09:57:29;95222.66;;;19.28;44.55
20013;BME280;10167;42.852;23.042;2023-02-19T10:00:00;95217.41;;;19.13;43.41
20013;BME280;10167;42.852;23.042;2023-02-19T10:02:32;95209.44;;;19.32;43.91
20013;BME280;10167;42.852;23.042;2023-02-19T10:05:03;95208.44;;;19.28;42.14
20013;BME280;10167;42.852;23.042;2023-02-19T10:07:37;95206.63;;;19.47;42.33
20013;BME280;10167;42.852;23.042;2023-02-19T10:10:21;95200.47;;;19.70;40.92
20013;BME280;10167;42.852;23.042;2023-02-19T10:12:55;95189.31;;;19.82;41.60
20013;BME280;10167;42.852;23.042;2023-02-19T10:15:30;95192.00;;;20.24;40.96
20013;BME280;10167;42.852;23.042;2023-02-19T10:18:02;95188.56;;;19.76;41.12
20013;BME280;10167;42.852;23.042;2023-02-19T10:20:32;95191.34;;;19.71;40.65
20013;BME280;10167;42.852;23.042;2023-02-19T10:23:03;95173.47;;;20.04;40.15
20013;BME280;10167;42.852;23.042;2023-02-19T10:25:34;95173.56;;;20.37;40.46
20013;BME280;10167;42.852;23.042;2023-02-19T10:28:08;95171.19;;;20.54;39.42
20013;BME280;10167;42.852;23.042;2023-02-19T10:30:41;95151.53;;;20.53;39.44
20013;BME280;10167;42.852;23.042;2023-02-19T10:33:13;95153.69;;;20.33;39.54
20013;BME280;10167;42.852;23.042;2023-02-19T10:35:54;95147.88;;;20.07;39.80
20013;BME280;10167;42.852;23.042;2023-02-19T10:38:27;95141.00;;;20.38;39.33
20013;BME280;10167;42.852;23.042;2023-02-19T10:41:04;95141.19;;;20.60;39.18
20013;BME280;10167;42.852;23.042;2023-02-19T10:43:37;95133.19;;;20.74;40.00
20013;BME280;10167;42.852;23.042;2023-02-19T10:46:15;95131.81;;;20.90;39.30
20013;BME280;10167;42.852;23.042;2023-02-19T10:48:49;95121.59;;;21.06;38.21
20013;BME280;10167;42.852;23.042;2023-02-19T10:51:20;95121.50;;;20.79;38.81
20013;BME280;10167;42.852;23.042;2023-02-19T10:54:03;95118.47;;;20.53;38.83
20013;BME280;10167;42.852;23.042;2023-02-19T10:56:33;95105.25;;;20.38;39.08
20013;BME280;10167;42.852;23.042;2023-02-19T10:59:22;95102.09;;;20.82;38.33
20013;BME280;10167;42.852;23.042;2023-02-19T11:01:56;95099.19;;;21.24;37.17
20013;BME280;10167;42.852;23.042;2023-02-19T11:04:27;95092.63;;;21.30;37.97
20013;BME280;10167;42.852;23.042;2023-02-19T11:07:07;95094.91;;;21.37;37.83
20013;BME280;10167;42.852;23.042;2023-02-19T11:09:38;95092.91;;;21.29;37.61
20013;BME280;10167;42.852;23.042;2023-02-19T11:12:09;95090.72;;;21.45;37.65
20013;BME280;10167;42.852;23.042;2023-02-19T11:14:42;95083.63;;;21.76;37.13
20013;BME280;10167;42.852;23.042;2023-02-19T11:17:22;95073.00;;;22.52;35.81
20013;BME280;10167;42.852;23.042;2023-02-19T11:19:53;95072.19;;;22.73;35.14
20013;BME280;10167;42.852;23.042;2023-02-19T11:22:29;95067.59;;;22.96;35.06
20013;BME280;10167;42.852;23.042;2023-02-19T11:25:03;95064.97;;;22.38;35.04
20013;BME280;10167;42.852;23.042;2023-02-19T11:27:33;95057.09;;;22.05;34.73
20013;BME280;10167;42.852;23.042;2023-02-19T11:30:32;95044.69;;;22.94;34.41
20013;BME280;10167;42.852;23.042;2023-02-19T11:33:24;95047.31;;;23.16;34.18
20013;BME280;10167;42.852;23.042;2023-02-19T11:36:27;95040.59;;;23.05;34.26
20013;BME280;10167;42.852;23.042;2023-02-19T11:38:58;95033.41;;;22.69;34.33
20013;BME280;10167;42.852;23.042;2023-02-19T11:41:53;95026.56;;;22.94;34.41
20013;BME280;10167;42.852;23.042;2023-02-19T11:44:38;95027.75;;;23.50;34.23
20013;BME280;10167;42.852;23.042;2023-02-19T11:47:42;95029.78;;;23.36;33.55
20013;BME280;10167;42.852;23.042;2023-02-19T11:50:20;95025.28;;;23.31;33.14
20013;BME280;10167;42.852;23.042;2023-02-19T11:52:59;95013.00;;;23.65;33.15
20013;BME280;10167;42.852;23.042;2023-02-19T11:55:46;95011.34;;;23.46;33.06
20013;BME280;10167;42.852;23.042;2023-02-19T12:01:43;94995.78;;;23.04;33.16
20013;BME280;10167;42.852;23.042;2023-02-19T12:04:55;94993.91;;;23.52;32.55
20013;BME280;10167;42.852;23.042;2023-02-19T12:10:42;94987.75;;;23.21;33.17
20013;BME280;10167;42.852;23.042;2023-02-19T12:13:19;94974.75;;;23.40;32.82
20013;BME280;10167;42.852;23.042;2023-02-19T12:16:07;94967.66;;;23.53;33.26
20013;BME280;10167;42.852;23.042;2023-02-19T12:19:13;94962.66;;;23.29;32.97
20013;BME280;10167;42.852;23.042;2023-02-19T12:21:57;94957.81;;;23.57;33.25
20013;BME280;10167;42.852;23.042;2023-02-19T12:27:36;94952.06;;;22.54;34.42
20013;BME280;10167;42.852;23.042;2023-02-19T12:30:24;94950.34;;;22.35;34.34
20013;BME280;10167;42.852;23.042;2023-02-19T12:33:13;94939.16;;;21.97;34.78
20013;BME280;10167;42.852;23.042;2023-02-19T12:35:55;94928.56;;;22.23;35.11
20013;BME280;10167;42.852;23.042;2023-02-19T12:38:31;94926.59;;;22.46;34.76
20013;BME280;10167;42.852;23.042;2023-02-19T12:41:18;94917.72;;;22.76;34.15
20013;BME280;10167;42.852;23.042;2023-02-19T12:43:54;94910.38;;;22.06;34.58
20013;BME280;10167;42.852;23.042;2023-02-19T12:46:30;94905.22;;;22.58;34.60
20013;BME280;10167;42.852;23.042;2023-02-19T12:49:05;94896.19;;;22.63;34.32
20013;BME280;10167;42.852;23.042;2023-02-19T12:51:40;94894.78;;;22.65;34.65
20013;BME280;10167;42.852;23.042;2023-02-19T12:54:17;94892.97;;;22.43;34.34
20013;BME280;10167;42.852;23.042;2023-02-19T12:56:54;94889.88;;;22.28;34.58
20013;BME280;10167;42.852;23.042;2023-02-19T12:59:29;94883.25;;;22.34;34.55
20013;BME280;10167;42.852;23.042;2023-02-19T13:02:11;94875.16;;;22.34;34.77
20013;BME280;10167;42.852;23.042;2023-02-19T13:04:45;94867.44;;;22.58;34.42
20013;BME280;10167;42.852;23.042;2023-02-19T13:07:18;94865.97;;;22.92;34.34
20013;BME280;10167;42.852;23.042;2023-02-19T13:09:54;94865.81;;;22.49;34.30
20013;BME280;10167;42.852;23.042;2023-02-19T13:12:28;94854.16;;;22.22;35.08
20013;BME280;10167;42.852;23.042;2023-02-19T13:15:03;94844.00;;;22.28;34.25
20013;BME280;10167;42.852;23.042;2023-02-19T13:17:40;94838.41;;;22.16;34.86
20013;BME280;10167;42.852;23.042;2023-02-19T13:20:16;94832.63;;;21.78;35.43
20013;BME280;10167;42.852;23.042;2023-02-19T13:22:57;94833.63;;;21.90;35.10
20013;BME280;10167;42.852;23.042;2023-02-19T13:25:57;94832.50;;;21.38;36.41
20013;BME280;10167;42.852;23.042;2023-02-19T13:28:43;94825.22;;;21.38;36.65
20013;BME280;10167;42.852;23.042;2023-02-19T13:31:48;94820.09;;;21.51;36.56
20013;BME280;10167;42.852;23.042;2023-02-19T13:34:37;94807.66;;;21.41;36.27